RYR5Y LFMU-EGGW
Flight info
| Callsign | RYR5Y |
|---|---|
| Flight time | 1h 46m |
| Altitude | 36000 |
| Route | FJR DCT NG DCT MOLEN DCT MTL DCT ETREK DCT MADOT DCT MOPEM DCT CACHI DCT AVLON DCT OKRIX DCT BRY DCT CLM DCT KOPOR DCT PIREG DCT SOSUN DCT SUBIP UM733 UNDUG |
| Aircraft | B738/M-SDE2E3FGHIRWXY/LB1 |
Departure
| Time | 2026-05-07 10:57 |
|---|---|
| Airport | Béziers Vias airport (LFMU) |
Arrival
| Time | 2026-05-07 12:43 |
|---|---|
| Airport | London Luton Airport (EGGW) |
| Time | Latitude | Longitude | Altitude | Speed | Heading |
|---|---|---|---|---|---|
| 2026-05-07 10:39 | 43.32153 | 3.35268 | 58 ft | 0 kts | 184° |
| 2026-05-07 10:47 | 43.32169 | 3.35268 | 53 ft | 4 kts | 152° |
| 2026-05-07 10:48 | 43.32182 | 3.35243 | 52 ft | 4 kts | 97° |
| 2026-05-07 10:48 | 43.32184 | 3.35223 | 55 ft | 1 kts | 94° |
| 2026-05-07 10:48 | 43.32184 | 3.35220 | 54 ft | 0 kts | 94° |
| 2026-05-07 10:51 | 43.32184 | 3.35222 | 54 ft | 1 kts | 94° |
| 2026-05-07 10:52 | 43.32183 | 3.35231 | 55 ft | 2 kts | 94° |
| 2026-05-07 10:52 | 43.32181 | 3.35267 | 57 ft | 5 kts | 94° |
| 2026-05-07 10:52 | 43.32197 | 3.35318 | 54 ft | 6 kts | 31° |
| 2026-05-07 10:52 | 43.32241 | 3.35326 | 58 ft | 6 kts | 4° |
| 2026-05-07 10:53 | 43.32287 | 3.35331 | 58 ft | 7 kts | 4° |
| 2026-05-07 10:53 | 43.32335 | 3.35348 | 54 ft | 8 kts | 45° |
| 2026-05-07 10:53 | 43.32342 | 3.35419 | 56 ft | 8 kts | 92° |
| 2026-05-07 10:53 | 43.32338 | 3.35509 | 49 ft | 11 kts | 94° |
| 2026-05-07 10:54 | 43.32330 | 3.35641 | 52 ft | 17 kts | 95° |
| 2026-05-07 10:54 | 43.32318 | 3.35826 | 53 ft | 20 kts | 95° |
| 2026-05-07 10:54 | 43.32308 | 3.36014 | 50 ft | 20 kts | 94° |
| 2026-05-07 10:54 | 43.32297 | 3.36204 | 49 ft | 20 kts | 94° |
| 2026-05-07 10:55 | 43.32287 | 3.36388 | 51 ft | 19 kts | 95° |
| 2026-05-07 10:55 | 43.32277 | 3.36566 | 49 ft | 18 kts | 94° |
| 2026-05-07 10:55 | 43.32258 | 3.36680 | 50 ft | 9 kts | 121° |
| 2026-05-07 10:55 | 43.32253 | 3.36733 | 51 ft | 5 kts | 30° |
| 2026-05-07 10:56 | 43.32268 | 3.36696 | 51 ft | 6 kts | 272° |
| 2026-05-07 10:56 | 43.32270 | 3.36624 | 50 ft | 12 kts | 272° |
| 2026-05-07 10:56 | 43.32300 | 3.36114 | 48 ft | 97 kts | 275° |
| 2026-05-07 10:56 | 43.32354 | 3.34826 | 91 ft | 168 kts | 271° |
| 2026-05-07 10:57 | 43.32490 | 3.33153 | 884 ft | 181 kts | 285° |
| 2026-05-07 10:57 | 43.32765 | 3.32076 | 1671 ft | 177 kts | 291° |
| 2026-05-07 10:57 | 43.33230 | 3.30517 | 2696 ft | 180 kts | 294° |
| 2026-05-07 10:57 | 43.33775 | 3.28902 | 3376 ft | 193 kts | 298° |
| 2026-05-07 10:58 | 43.34552 | 3.27365 | 3964 ft | 204 kts | 320° |
| 2026-05-07 10:58 | 43.35932 | 3.26631 | 4195 ft | 230 kts | 358° |
| 2026-05-07 10:58 | 43.37490 | 3.27275 | 4473 ft | 244 kts | 36° |
| 2026-05-07 10:58 | 43.38567 | 3.29165 | 4265 ft | 273 kts | 67° |
| 2026-05-07 10:59 | 43.38932 | 3.31963 | 4299 ft | 309 kts | 88° |
| 2026-05-07 10:59 | 43.39010 | 3.34877 | 5503 ft | 303 kts | 87° |
| 2026-05-07 10:59 | 43.39105 | 3.37747 | 6649 ft | 297 kts | 87° |
| 2026-05-07 10:59 | 43.39196 | 3.40554 | 7783 ft | 290 kts | 87° |
| 2026-05-07 11:00 | 43.39283 | 3.43330 | 8714 ft | 292 kts | 88° |
| 2026-05-07 11:00 | 43.39407 | 3.46139 | 9546 ft | 297 kts | 80° |
| 2026-05-07 11:00 | 43.40120 | 3.48812 | 10297 ft | 302 kts | 63° |
| 2026-05-07 11:00 | 43.41106 | 3.51481 | 10580 ft | 326 kts | 62° |
| 2026-05-07 11:01 | 43.42179 | 3.54344 | 10898 ft | 345 kts | 62° |
| 2026-05-07 11:01 | 43.43290 | 3.57317 | 11562 ft | 353 kts | 62° |
| 2026-05-07 11:01 | 43.44407 | 3.60335 | 12371 ft | 355 kts | 63° |
| 2026-05-07 11:01 | 43.45527 | 3.63388 | 13181 ft | 359 kts | 63° |
| 2026-05-07 11:02 | 43.46652 | 3.66472 | 13939 ft | 363 kts | 63° |
| 2026-05-07 11:02 | 43.47786 | 3.69594 | 14620 ft | 367 kts | 63° |
| 2026-05-07 11:02 | 43.48932 | 3.72757 | 15320 ft | 370 kts | 64° |
| 2026-05-07 11:02 | 43.50085 | 3.75945 | 16025 ft | 374 kts | 64° |
| 2026-05-07 11:03 | 43.51234 | 3.79125 | 16702 ft | 378 kts | 64° |
| 2026-05-07 11:03 | 43.52424 | 3.82424 | 17384 ft | 382 kts | 64° |
| 2026-05-07 11:03 | 43.53596 | 3.85674 | 18039 ft | 386 kts | 64° |
| 2026-05-07 11:03 | 43.54795 | 3.89003 | 18653 ft | 390 kts | 64° |
| 2026-05-07 11:04 | 43.56005 | 3.92368 | 19217 ft | 394 kts | 64° |
| 2026-05-07 11:04 | 43.57227 | 3.95769 | 19812 ft | 397 kts | 64° |
| 2026-05-07 11:04 | 43.58649 | 3.99026 | 20408 ft | 400 kts | 51° |
| 2026-05-07 11:04 | 43.60484 | 4.01925 | 20952 ft | 403 kts | 47° |
| 2026-05-07 11:05 | 43.62406 | 4.04777 | 21475 ft | 408 kts | 46° |
| 2026-05-07 11:05 | 43.64351 | 4.07651 | 22003 ft | 412 kts | 47° |
| 2026-05-07 11:05 | 43.66299 | 4.10564 | 22537 ft | 415 kts | 47° |
| 2026-05-07 11:05 | 43.68251 | 4.13528 | 23071 ft | 419 kts | 47° |
| 2026-05-07 11:06 | 43.70209 | 4.16533 | 23580 ft | 422 kts | 48° |
| 2026-05-07 11:06 | 43.72176 | 4.19572 | 23994 ft | 426 kts | 48° |
| 2026-05-07 11:06 | 43.74158 | 4.22645 | 24382 ft | 430 kts | 47° |
| 2026-05-07 11:06 | 43.76159 | 4.25751 | 24783 ft | 434 kts | 47° |
| 2026-05-07 11:07 | 43.78171 | 4.28877 | 25239 ft | 436 kts | 47° |
| 2026-05-07 11:07 | 43.80196 | 4.32025 | 25639 ft | 440 kts | 47° |
| 2026-05-07 11:07 | 43.82239 | 4.35202 | 25993 ft | 444 kts | 47° |
| 2026-05-07 11:07 | 43.84386 | 4.38296 | 26341 ft | 447 kts | 39° |
| 2026-05-07 11:08 | 43.86871 | 4.40881 | 26718 ft | 448 kts | 30° |
| 2026-05-07 11:08 | 43.89618 | 4.42896 | 27097 ft | 448 kts | 20° |
| 2026-05-07 11:08 | 43.92530 | 4.44460 | 27475 ft | 450 kts | 17° |
| 2026-05-07 11:08 | 43.95477 | 4.45966 | 27848 ft | 453 kts | 17° |
| 2026-05-07 11:09 | 43.98437 | 4.47494 | 28236 ft | 455 kts | 18° |
| 2026-05-07 11:09 | 44.01402 | 4.49068 | 28604 ft | 458 kts | 18° |
| 2026-05-07 11:09 | 44.04384 | 4.50680 | 28943 ft | 461 kts | 18° |
| 2026-05-07 11:09 | 44.07345 | 4.52285 | 29264 ft | 464 kts | 18° |
| 2026-05-07 11:10 | 44.10407 | 4.53918 | 29594 ft | 467 kts | 17° |
| 2026-05-07 11:10 | 44.13415 | 4.55509 | 29918 ft | 470 kts | 17° |
| 2026-05-07 11:10 | 44.16474 | 4.57125 | 30278 ft | 470 kts | 17° |
| 2026-05-07 11:10 | 44.19574 | 4.58767 | 30652 ft | 470 kts | 17° |
| 2026-05-07 11:11 | 44.22580 | 4.60363 | 31038 ft | 469 kts | 17° |
| 2026-05-07 11:11 | 44.25628 | 4.61986 | 31407 ft | 468 kts | 17° |
| 2026-05-07 11:11 | 44.28670 | 4.63608 | 31736 ft | 469 kts | 17° |
| 2026-05-07 11:11 | 44.31721 | 4.65237 | 32048 ft | 469 kts | 17° |
| 2026-05-07 11:12 | 44.34773 | 4.66869 | 32432 ft | 469 kts | 16° |
| 2026-05-07 11:12 | 44.37812 | 4.68496 | 32843 ft | 467 kts | 16° |
| 2026-05-07 11:12 | 44.40841 | 4.70120 | 33191 ft | 467 kts | 16° |
| 2026-05-07 11:12 | 44.43874 | 4.71746 | 33481 ft | 468 kts | 16° |
| 2026-05-07 11:13 | 44.46913 | 4.73377 | 33807 ft | 468 kts | 16° |
| 2026-05-07 11:13 | 44.49952 | 4.75010 | 34127 ft | 468 kts | 16° |
| 2026-05-07 11:13 | 44.53020 | 4.76436 | 34460 ft | 462 kts | 7° |
| 2026-05-07 11:13 | 44.56155 | 4.77133 | 34850 ft | 451 kts | 358° |
| 2026-05-07 11:14 | 44.59267 | 4.77214 | 35140 ft | 444 kts | 350° |
| 2026-05-07 11:14 | 44.62318 | 4.76673 | 35322 ft | 442 kts | 345° |
| 2026-05-07 11:14 | 44.65352 | 4.75969 | 35523 ft | 442 kts | 345° |
| 2026-05-07 11:14 | 44.68386 | 4.75247 | 35768 ft | 442 kts | 345° |
| 2026-05-07 11:15 | 44.71421 | 4.74532 | 35989 ft | 443 kts | 345° |
| 2026-05-07 11:15 | 44.74479 | 4.73824 | 35986 ft | 447 kts | 345° |
| 2026-05-07 11:15 | 44.80632 | 4.72437 | 36002 ft | 447 kts | 345° |
| 2026-05-07 11:16 | 44.86738 | 4.71085 | 36002 ft | 441 kts | 345° |
| 2026-05-07 11:16 | 44.92802 | 4.69734 | 36021 ft | 442 kts | 345° |
| 2026-05-07 11:17 | 44.98869 | 4.68377 | 36011 ft | 441 kts | 345° |
| 2026-05-07 11:17 | 45.04928 | 4.67020 | 36000 ft | 441 kts | 345° |
| 2026-05-07 11:18 | 45.10984 | 4.65660 | 36017 ft | 441 kts | 346° |
| 2026-05-07 11:18 | 45.17042 | 4.64297 | 36002 ft | 441 kts | 346° |
| 2026-05-07 11:19 | 45.23092 | 4.62926 | 36008 ft | 440 kts | 345° |
| 2026-05-07 11:19 | 45.29098 | 4.61549 | 36014 ft | 440 kts | 345° |
| 2026-05-07 11:20 | 45.35147 | 4.60158 | 36021 ft | 441 kts | 346° |
| 2026-05-07 11:20 | 45.41199 | 4.58765 | 36025 ft | 440 kts | 346° |
| 2026-05-07 11:21 | 45.47246 | 4.57371 | 36020 ft | 441 kts | 346° |
| 2026-05-07 11:21 | 45.53307 | 4.55971 | 36032 ft | 441 kts | 346° |
| 2026-05-07 11:22 | 45.59373 | 4.54567 | 36030 ft | 442 kts | 346° |
| 2026-05-07 11:22 | 45.65443 | 4.53159 | 36025 ft | 442 kts | 346° |
| 2026-05-07 11:23 | 45.71518 | 4.51746 | 36033 ft | 443 kts | 346° |
| 2026-05-07 11:23 | 45.77603 | 4.50330 | 36027 ft | 443 kts | 346° |
| 2026-05-07 11:24 | 45.83686 | 4.48914 | 36024 ft | 443 kts | 346° |
| 2026-05-07 11:24 | 45.89768 | 4.47495 | 36046 ft | 442 kts | 346° |
| 2026-05-07 11:25 | 45.95838 | 4.46075 | 36039 ft | 441 kts | 346° |
| 2026-05-07 11:25 | 46.01897 | 4.44654 | 36028 ft | 441 kts | 346° |
| 2026-05-07 11:26 | 46.07947 | 4.43232 | 36033 ft | 440 kts | 346° |
| 2026-05-07 11:26 | 46.13989 | 4.41809 | 36035 ft | 440 kts | 346° |
| 2026-05-07 11:27 | 46.20027 | 4.40383 | 36027 ft | 439 kts | 346° |
| 2026-05-07 11:27 | 46.26015 | 4.38966 | 36031 ft | 439 kts | 347° |
| 2026-05-07 11:28 | 46.31994 | 4.37305 | 36040 ft | 437 kts | 343° |
| 2026-05-07 11:28 | 46.37890 | 4.35199 | 36029 ft | 436 kts | 342° |
| 2026-05-07 11:29 | 46.43769 | 4.33061 | 36044 ft | 436 kts | 342° |
| 2026-05-07 11:29 | 46.49655 | 4.30965 | 36047 ft | 436 kts | 342° |
| 2026-05-07 11:30 | 46.55553 | 4.28886 | 36045 ft | 436 kts | 343° |
| 2026-05-07 11:30 | 46.61462 | 4.26805 | 36039 ft | 437 kts | 343° |
| 2026-05-07 11:31 | 46.67375 | 4.24717 | 36041 ft | 437 kts | 342° |
| 2026-05-07 11:31 | 46.73293 | 4.22622 | 36036 ft | 438 kts | 342° |
| 2026-05-07 11:32 | 46.82171 | 4.19469 | 36034 ft | 438 kts | 342° |
| 2026-05-07 11:33 | 46.88092 | 4.17360 | 36038 ft | 438 kts | 342° |
| 2026-05-07 11:33 | 46.94022 | 4.15243 | 36043 ft | 439 kts | 343° |
| 2026-05-07 11:34 | 46.99954 | 4.13120 | 36043 ft | 439 kts | 343° |
| 2026-05-07 11:34 | 47.05892 | 4.10989 | 36036 ft | 439 kts | 342° |
| 2026-05-07 11:35 | 47.11579 | 4.08059 | 36054 ft | 435 kts | 334° |
| 2026-05-07 11:35 | 47.17200 | 4.04599 | 36044 ft | 435 kts | 334° |
| 2026-05-07 11:36 | 47.22755 | 4.01210 | 36045 ft | 435 kts | 334° |
| 2026-05-07 11:36 | 47.28366 | 3.97850 | 36037 ft | 435 kts | 335° |
| 2026-05-07 11:37 | 47.33979 | 3.94505 | 36058 ft | 435 kts | 335° |
| 2026-05-07 11:37 | 47.39590 | 3.91154 | 36047 ft | 435 kts | 335° |
| 2026-05-07 11:38 | 47.45202 | 3.87793 | 36048 ft | 435 kts | 335° |
| 2026-05-07 11:38 | 47.50812 | 3.84424 | 36050 ft | 435 kts | 335° |
| 2026-05-07 11:39 | 47.56423 | 3.81048 | 36056 ft | 435 kts | 335° |
| 2026-05-07 11:39 | 47.62040 | 3.77679 | 36051 ft | 435 kts | 335° |
| 2026-05-07 11:40 | 47.67652 | 3.74313 | 36051 ft | 435 kts | 335° |
| 2026-05-07 11:40 | 47.73263 | 3.70937 | 36051 ft | 435 kts | 335° |
| 2026-05-07 11:41 | 47.78875 | 3.67550 | 36049 ft | 435 kts | 335° |
| 2026-05-07 11:41 | 47.84486 | 3.64157 | 36050 ft | 435 kts | 335° |
| 2026-05-07 11:42 | 47.90095 | 3.60755 | 36047 ft | 435 kts | 335° |
| 2026-05-07 11:42 | 47.95701 | 3.57350 | 36059 ft | 435 kts | 335° |
| 2026-05-07 11:43 | 48.01300 | 3.53925 | 36052 ft | 435 kts | 335° |
| 2026-05-07 11:43 | 48.06899 | 3.50477 | 36048 ft | 435 kts | 335° |
| 2026-05-07 11:44 | 48.12491 | 3.47026 | 36053 ft | 435 kts | 335° |
| 2026-05-07 11:44 | 48.18041 | 3.43594 | 36065 ft | 434 kts | 335° |
| 2026-05-07 11:45 | 48.23630 | 3.40131 | 36052 ft | 435 kts | 335° |
| 2026-05-07 11:45 | 48.29214 | 3.36662 | 36055 ft | 434 kts | 335° |
| 2026-05-07 11:46 | 48.34801 | 3.33183 | 36058 ft | 434 kts | 335° |
| 2026-05-07 11:46 | 48.40386 | 3.29699 | 36067 ft | 435 kts | 335° |
| 2026-05-07 11:47 | 48.45026 | 3.26768 | 36058 ft | 435 kts | 335° |
| 2026-05-07 11:47 | 48.50601 | 3.23206 | 36059 ft | 435 kts | 335° |
| 2026-05-07 11:48 | 48.56176 | 3.19637 | 36061 ft | 436 kts | 335° |
| 2026-05-07 11:48 | 48.61759 | 3.16059 | 36069 ft | 436 kts | 335° |
| 2026-05-07 11:49 | 48.67342 | 3.12474 | 36065 ft | 436 kts | 335° |
| 2026-05-07 11:49 | 48.72932 | 3.08876 | 36064 ft | 437 kts | 335° |
| 2026-05-07 11:50 | 48.78520 | 3.05270 | 36064 ft | 437 kts | 335° |
| 2026-05-07 11:50 | 48.84107 | 3.01652 | 36064 ft | 436 kts | 334° |
| 2026-05-07 11:51 | 48.89450 | 2.97339 | 36071 ft | 434 kts | 327° |
| 2026-05-07 11:51 | 48.94647 | 2.92653 | 36067 ft | 434 kts | 327° |
| 2026-05-07 11:52 | 48.99856 | 2.87981 | 36069 ft | 435 kts | 327° |
| 2026-05-07 11:52 | 49.05087 | 2.83351 | 36076 ft | 435 kts | 328° |
| 2026-05-07 11:53 | 49.10322 | 2.78733 | 36081 ft | 435 kts | 328° |
| 2026-05-07 11:53 | 49.15568 | 2.74098 | 36076 ft | 435 kts | 328° |
| 2026-05-07 11:54 | 49.20807 | 2.69455 | 36071 ft | 435 kts | 328° |
| 2026-05-07 11:54 | 49.26034 | 2.64810 | 36059 ft | 435 kts | 327° |
| 2026-05-07 11:55 | 49.31265 | 2.60150 | 36068 ft | 435 kts | 327° |
| 2026-05-07 11:55 | 49.36482 | 2.55491 | 36073 ft | 434 kts | 327° |
| 2026-05-07 11:56 | 49.41706 | 2.50813 | 36070 ft | 434 kts | 327° |
| 2026-05-07 11:56 | 49.46924 | 2.46130 | 36069 ft | 434 kts | 327° |
| 2026-05-07 11:57 | 49.52039 | 2.41321 | 36065 ft | 432 kts | 320° |
| 2026-05-07 11:57 | 49.56535 | 2.35234 | 36080 ft | 431 kts | 315° |
| 2026-05-07 11:58 | 49.60953 | 2.28993 | 36075 ft | 431 kts | 315° |
| 2026-05-07 11:58 | 49.65394 | 2.22787 | 36075 ft | 431 kts | 316° |
| 2026-05-07 11:59 | 49.69850 | 2.16595 | 36074 ft | 431 kts | 316° |
| 2026-05-07 11:59 | 49.74306 | 2.10399 | 36073 ft | 431 kts | 316° |
| 2026-05-07 12:00 | 49.78755 | 2.04192 | 36070 ft | 431 kts | 316° |
| 2026-05-07 12:00 | 49.83205 | 1.97969 | 36060 ft | 431 kts | 315° |
| 2026-05-07 12:01 | 49.87428 | 1.91433 | 36061 ft | 428 kts | 304° |
| 2026-05-07 12:01 | 49.90260 | 1.83416 | 36079 ft | 423 kts | 290° |
| 2026-05-07 12:02 | 49.92437 | 1.74924 | 36068 ft | 424 kts | 290° |
| 2026-05-07 12:02 | 49.94645 | 1.66434 | 36070 ft | 424 kts | 290° |
| 2026-05-07 12:03 | 49.96886 | 1.57945 | 36072 ft | 425 kts | 291° |
| 2026-05-07 12:03 | 49.99944 | 1.50078 | 36073 ft | 429 kts | 308° |
| 2026-05-07 12:04 | 50.04292 | 1.43689 | 36073 ft | 431 kts | 317° |
| 2026-05-07 12:04 | 50.08858 | 1.37619 | 36078 ft | 432 kts | 317° |
| 2026-05-07 12:05 | 50.13371 | 1.31551 | 35801 ft | 424 kts | 316° |
| 2026-05-07 12:05 | 50.15570 | 1.28561 | 35550 ft | 416 kts | 316° |
| 2026-05-07 12:05 | 50.17737 | 1.25601 | 35151 ft | 413 kts | 316° |
| 2026-05-07 12:05 | 50.19884 | 1.22657 | 34812 ft | 409 kts | 316° |
| 2026-05-07 12:06 | 50.22013 | 1.19733 | 34441 ft | 406 kts | 316° |
| 2026-05-07 12:06 | 50.24125 | 1.16829 | 34075 ft | 403 kts | 316° |
| 2026-05-07 12:06 | 50.26224 | 1.13940 | 33654 ft | 401 kts | 316° |
| 2026-05-07 12:06 | 50.28306 | 1.11071 | 33265 ft | 397 kts | 316° |
| 2026-05-07 12:07 | 50.30369 | 1.08226 | 32917 ft | 393 kts | 316° |
| 2026-05-07 12:07 | 50.32410 | 1.05408 | 32561 ft | 389 kts | 316° |
| 2026-05-07 12:07 | 50.34431 | 1.02614 | 32207 ft | 386 kts | 316° |
| 2026-05-07 12:07 | 50.36434 | 0.99841 | 31859 ft | 383 kts | 316° |
| 2026-05-07 12:08 | 50.38421 | 0.97088 | 31505 ft | 380 kts | 316° |
| 2026-05-07 12:08 | 50.40364 | 0.94393 | 31178 ft | 377 kts | 316° |
| 2026-05-07 12:08 | 50.42316 | 0.91682 | 30853 ft | 374 kts | 316° |
| 2026-05-07 12:08 | 50.44258 | 0.88982 | 30513 ft | 372 kts | 316° |
| 2026-05-07 12:09 | 50.46201 | 0.86332 | 30184 ft | 369 kts | 317° |
| 2026-05-07 12:09 | 50.48157 | 0.83736 | 29810 ft | 367 kts | 317° |
| 2026-05-07 12:09 | 50.50097 | 0.81172 | 29479 ft | 362 kts | 317° |
| 2026-05-07 12:09 | 50.52011 | 0.78630 | 29128 ft | 359 kts | 317° |
| 2026-05-07 12:10 | 50.53902 | 0.76108 | 28787 ft | 355 kts | 317° |
| 2026-05-07 12:10 | 50.55775 | 0.73607 | 28455 ft | 351 kts | 317° |
| 2026-05-07 12:10 | 50.57634 | 0.71131 | 28108 ft | 349 kts | 317° |
| 2026-05-07 12:10 | 50.59474 | 0.68681 | 27786 ft | 345 kts | 317° |
| 2026-05-07 12:11 | 50.61302 | 0.66246 | 27453 ft | 343 kts | 317° |
| 2026-05-07 12:11 | 50.63112 | 0.63830 | 27124 ft | 340 kts | 317° |
| 2026-05-07 12:11 | 50.64909 | 0.61428 | 26811 ft | 337 kts | 317° |
| 2026-05-07 12:11 | 50.66696 | 0.59038 | 26479 ft | 336 kts | 317° |
| 2026-05-07 12:12 | 50.68476 | 0.56653 | 26162 ft | 335 kts | 317° |
| 2026-05-07 12:12 | 50.70253 | 0.54269 | 25840 ft | 336 kts | 317° |
| 2026-05-07 12:12 | 50.72050 | 0.51854 | 25540 ft | 345 kts | 317° |
| 2026-05-07 12:12 | 50.73923 | 0.49335 | 25309 ft | 364 kts | 317° |
| 2026-05-07 12:13 | 50.75903 | 0.46669 | 25096 ft | 383 kts | 317° |
| 2026-05-07 12:13 | 50.77935 | 0.43934 | 24843 ft | 384 kts | 317° |
| 2026-05-07 12:13 | 50.79957 | 0.41211 | 24511 ft | 380 kts | 317° |
| 2026-05-07 12:13 | 50.81957 | 0.38512 | 24144 ft | 377 kts | 317° |
| 2026-05-07 12:14 | 50.83941 | 0.35826 | 23738 ft | 374 kts | 317° |
| 2026-05-07 12:14 | 50.85912 | 0.33155 | 23285 ft | 372 kts | 317° |
| 2026-05-07 12:14 | 50.87871 | 0.30496 | 22840 ft | 370 kts | 317° |
| 2026-05-07 12:14 | 50.89816 | 0.27852 | 22424 ft | 367 kts | 317° |
| 2026-05-07 12:15 | 50.91743 | 0.25231 | 22026 ft | 364 kts | 317° |
| 2026-05-07 12:15 | 50.93656 | 0.22626 | 21606 ft | 361 kts | 317° |
| 2026-05-07 12:15 | 50.95555 | 0.20037 | 21220 ft | 359 kts | 317° |
| 2026-05-07 12:15 | 50.97443 | 0.17462 | 20830 ft | 357 kts | 317° |
| 2026-05-07 12:16 | 50.99317 | 0.14902 | 20443 ft | 355 kts | 317° |
| 2026-05-07 12:16 | 51.01179 | 0.12357 | 20064 ft | 352 kts | 317° |
| 2026-05-07 12:16 | 51.03080 | 0.09940 | 19872 ft | 347 kts | 322° |
| 2026-05-07 12:16 | 51.05047 | 0.07735 | 19714 ft | 348 kts | 323° |
| 2026-05-07 12:17 | 51.07078 | 0.05539 | 19580 ft | 357 kts | 324° |
| 2026-05-07 12:17 | 51.09148 | 0.03307 | 19413 ft | 361 kts | 324° |
| 2026-05-07 12:17 | 51.11189 | 0.01093 | 19251 ft | 359 kts | 324° |
| 2026-05-07 12:17 | 51.13240 | -0.01150 | 19163 ft | 356 kts | 323° |
| 2026-05-07 12:18 | 51.15274 | -0.03390 | 19000 ft | 355 kts | 323° |
| 2026-05-07 12:18 | 51.17295 | -0.05626 | 18837 ft | 353 kts | 323° |
| 2026-05-07 12:18 | 51.19310 | -0.07863 | 18680 ft | 352 kts | 323° |
| 2026-05-07 12:18 | 51.21315 | -0.10095 | 18526 ft | 351 kts | 323° |
| 2026-05-07 12:19 | 51.23318 | -0.12326 | 18367 ft | 351 kts | 323° |
| 2026-05-07 12:19 | 51.25318 | -0.14558 | 18188 ft | 351 kts | 323° |
| 2026-05-07 12:19 | 51.27316 | -0.16790 | 18016 ft | 350 kts | 323° |
| 2026-05-07 12:19 | 51.29311 | -0.19022 | 17851 ft | 350 kts | 323° |
| 2026-05-07 12:20 | 51.31305 | -0.21254 | 17683 ft | 349 kts | 323° |
| 2026-05-07 12:20 | 51.33294 | -0.23483 | 17542 ft | 349 kts | 323° |
| 2026-05-07 12:20 | 51.35281 | -0.25712 | 17379 ft | 349 kts | 323° |
| 2026-05-07 12:20 | 51.37268 | -0.27942 | 17221 ft | 349 kts | 323° |
| 2026-05-07 12:21 | 51.39251 | -0.30171 | 17067 ft | 349 kts | 323° |
| 2026-05-07 12:21 | 51.41272 | -0.32322 | 16898 ft | 350 kts | 332° |
| 2026-05-07 12:21 | 51.43608 | -0.33361 | 16733 ft | 352 kts | 356° |
| 2026-05-07 12:21 | 51.46025 | -0.32926 | 16590 ft | 352 kts | 18° |
| 2026-05-07 12:22 | 51.48278 | -0.31404 | 16464 ft | 351 kts | 25° |
| 2026-05-07 12:22 | 51.50471 | -0.29696 | 16287 ft | 351 kts | 26° |
| 2026-05-07 12:22 | 51.52660 | -0.27956 | 16132 ft | 351 kts | 26° |
| 2026-05-07 12:22 | 51.54852 | -0.26225 | 15970 ft | 350 kts | 26° |
| 2026-05-07 12:23 | 51.57042 | -0.24514 | 15811 ft | 349 kts | 26° |
| 2026-05-07 12:23 | 51.59198 | -0.22845 | 15656 ft | 348 kts | 26° |
| 2026-05-07 12:23 | 51.61377 | -0.21165 | 15490 ft | 347 kts | 26° |
| 2026-05-07 12:23 | 51.63546 | -0.19496 | 15343 ft | 345 kts | 26° |
| 2026-05-07 12:24 | 51.65734 | -0.17811 | 15187 ft | 343 kts | 26° |
| 2026-05-07 12:24 | 51.67885 | -0.16154 | 15040 ft | 342 kts | 26° |
| 2026-05-07 12:24 | 51.69993 | -0.14527 | 14917 ft | 339 kts | 26° |
| 2026-05-07 12:24 | 51.72095 | -0.12903 | 14784 ft | 331 kts | 26° |
| 2026-05-07 12:25 | 51.74142 | -0.11317 | 14665 ft | 322 kts | 27° |
| 2026-05-07 12:25 | 51.75951 | -0.09264 | 14336 ft | 318 kts | 46° |
| 2026-05-07 12:25 | 51.77463 | -0.06689 | 14049 ft | 315 kts | 47° |
| 2026-05-07 12:25 | 51.78959 | -0.04111 | 13720 ft | 314 kts | 47° |
| 2026-05-07 12:26 | 51.80453 | -0.01551 | 13371 ft | 312 kts | 47° |
| 2026-05-07 12:26 | 51.81943 | 0.00986 | 13022 ft | 311 kts | 47° |
| 2026-05-07 12:26 | 51.83433 | 0.03512 | 12680 ft | 310 kts | 47° |
| 2026-05-07 12:26 | 51.84920 | 0.06024 | 12347 ft | 308 kts | 47° |
| 2026-05-07 12:27 | 51.86400 | 0.08524 | 12003 ft | 308 kts | 47° |
| 2026-05-07 12:27 | 51.87879 | 0.11021 | 11681 ft | 306 kts | 46° |
| 2026-05-07 12:27 | 51.89352 | 0.13509 | 11289 ft | 307 kts | 47° |
| 2026-05-07 12:27 | 51.90973 | 0.15769 | 10835 ft | 310 kts | 27° |
| 2026-05-07 12:28 | 51.93050 | 0.16549 | 10420 ft | 308 kts | 356° |
| 2026-05-07 12:28 | 51.95050 | 0.15533 | 10002 ft | 302 kts | 325° |
| 2026-05-07 12:28 | 51.96405 | 0.13053 | 9539 ft | 293 kts | 292° |
| 2026-05-07 12:28 | 51.96736 | 0.09891 | 9122 ft | 283 kts | 262° |
| 2026-05-07 12:29 | 51.96642 | 0.06745 | 8703 ft | 279 kts | 278° |
| 2026-05-07 12:29 | 51.97209 | 0.03756 | 8312 ft | 276 kts | 289° |
| 2026-05-07 12:29 | 51.97854 | 0.00838 | 7946 ft | 273 kts | 288° |
| 2026-05-07 12:29 | 51.98476 | -0.02046 | 7634 ft | 269 kts | 288° |
| 2026-05-07 12:30 | 51.99087 | -0.04906 | 7346 ft | 268 kts | 287° |
| 2026-05-07 12:30 | 51.99694 | -0.07762 | 7053 ft | 267 kts | 288° |
| 2026-05-07 12:30 | 52.00297 | -0.10611 | 6760 ft | 267 kts | 288° |
| 2026-05-07 12:30 | 52.00899 | -0.13456 | 6465 ft | 267 kts | 288° |
| 2026-05-07 12:31 | 52.01500 | -0.16302 | 6140 ft | 266 kts | 288° |
| 2026-05-07 12:31 | 52.02097 | -0.19139 | 5826 ft | 265 kts | 288° |
| 2026-05-07 12:31 | 52.02693 | -0.21969 | 5527 ft | 265 kts | 288° |
| 2026-05-07 12:31 | 52.03288 | -0.24805 | 5207 ft | 266 kts | 287° |
| 2026-05-07 12:32 | 52.03525 | -0.27731 | 5005 ft | 260 kts | 259° |
| 2026-05-07 12:32 | 52.02885 | -0.30403 | 4997 ft | 254 kts | 234° |
| 2026-05-07 12:32 | 52.01776 | -0.32650 | 5006 ft | 257 kts | 227° |
| 2026-05-07 12:32 | 52.00572 | -0.34803 | 5004 ft | 257 kts | 225° |
| 2026-05-07 12:33 | 51.98975 | -0.39872 | 4990 ft | 256 kts | 253° |
| 2026-05-07 12:33 | 51.98502 | -0.42592 | 4971 ft | 245 kts | 252° |
| 2026-05-07 12:33 | 51.97983 | -0.45179 | 4969 ft | 238 kts | 240° |
| 2026-05-07 12:34 | 51.97356 | -0.46652 | 4997 ft | 235 kts | 229° |
| 2026-05-07 12:34 | 51.96300 | -0.48726 | 5000 ft | 241 kts | 229° |
| 2026-05-07 12:34 | 51.95245 | -0.50854 | 4998 ft | 242 kts | 230° |
| 2026-05-07 12:34 | 51.94197 | -0.52992 | 4996 ft | 242 kts | 230° |
| 2026-05-07 12:35 | 51.93155 | -0.55129 | 4994 ft | 242 kts | 230° |
| 2026-05-07 12:35 | 51.92112 | -0.57268 | 4985 ft | 241 kts | 230° |
| 2026-05-07 12:35 | 51.91072 | -0.59403 | 4996 ft | 241 kts | 230° |
| 2026-05-07 12:35 | 51.90085 | -0.61584 | 4983 ft | 242 kts | 242° |
| 2026-05-07 12:36 | 51.89571 | -0.64175 | 4995 ft | 242 kts | 253° |
| 2026-05-07 12:36 | 51.89138 | -0.66808 | 4988 ft | 242 kts | 253° |
| 2026-05-07 12:36 | 51.88686 | -0.69437 | 4996 ft | 241 kts | 252° |
| 2026-05-07 12:36 | 51.88234 | -0.71998 | 4995 ft | 231 kts | 250° |
| 2026-05-07 12:37 | 51.87388 | -0.74093 | 4798 ft | 223 kts | 216° |
| 2026-05-07 12:37 | 51.85994 | -0.75013 | 4502 ft | 216 kts | 187° |
| 2026-05-07 12:37 | 51.84533 | -0.74905 | 4173 ft | 211 kts | 167° |
| 2026-05-07 12:37 | 51.83135 | -0.74234 | 3850 ft | 210 kts | 153° |
| 2026-05-07 12:38 | 51.82156 | -0.72544 | 3524 ft | 212 kts | 111° |
| 2026-05-07 12:38 | 51.82126 | -0.70177 | 3245 ft | 215 kts | 79° |
| 2026-05-07 12:38 | 51.82422 | -0.67805 | 3063 ft | 217 kts | 80° |
| 2026-05-07 12:38 | 51.82704 | -0.65399 | 3009 ft | 218 kts | 81° |
| 2026-05-07 12:39 | 51.83008 | -0.63038 | 2981 ft | 208 kts | 79° |
| 2026-05-07 12:39 | 51.83343 | -0.60853 | 2968 ft | 193 kts | 76° |
| 2026-05-07 12:39 | 51.83699 | -0.58815 | 2983 ft | 186 kts | 76° |
| 2026-05-07 12:39 | 51.84049 | -0.56792 | 2873 ft | 188 kts | 77° |
| 2026-05-07 12:40 | 51.84393 | -0.54776 | 2642 ft | 183 kts | 77° |
| 2026-05-07 12:40 | 51.84727 | -0.52815 | 2408 ft | 178 kts | 76° |
| 2026-05-07 12:40 | 51.85047 | -0.50942 | 2159 ft | 167 kts | 76° |
| 2026-05-07 12:40 | 51.85346 | -0.49195 | 1958 ft | 153 kts | 77° |
| 2026-05-07 12:41 | 51.85627 | -0.47548 | 1735 ft | 152 kts | 77° |
| 2026-05-07 12:41 | 51.85902 | -0.45944 | 1532 ft | 147 kts | 77° |
| 2026-05-07 12:41 | 51.86175 | -0.44346 | 1340 ft | 148 kts | 76° |
| 2026-05-07 12:41 | 51.86442 | -0.42751 | 1118 ft | 145 kts | 77° |
| 2026-05-07 12:42 | 51.86693 | -0.41199 | 894 ft | 139 kts | 75° |
| 2026-05-07 12:42 | 51.86960 | -0.39698 | 725 ft | 140 kts | 74° |
| 2026-05-07 12:42 | 51.87229 | -0.38197 | 548 ft | 138 kts | 74° |
| 2026-05-07 12:42 | 51.87465 | -0.36822 | 522 ft | 104 kts | 75° |
| 2026-05-07 12:43 | 51.87580 | -0.36170 | 517 ft | 26 kts | 74° |
| 2026-05-07 12:43 | 51.87626 | -0.35939 | 515 ft | 14 kts | 51° |
| 2026-05-07 12:43 | 51.87712 | -0.35939 | 515 ft | 11 kts | 342° |
| 2026-05-07 12:43 | 51.87776 | -0.36003 | 515 ft | 11 kts | 301° |
| 2026-05-07 12:44 | 51.87776 | -0.36122 | 517 ft | 11 kts | 254° |
| 2026-05-07 12:44 | 51.87755 | -0.36242 | 517 ft | 12 kts | 254° |
| 2026-05-07 12:44 | 51.87725 | -0.36409 | 518 ft | 16 kts | 254° |
| 2026-05-07 12:44 | 51.87697 | -0.36568 | 519 ft | 14 kts | 254° |
| 2026-05-07 12:45 | 51.87673 | -0.36707 | 521 ft | 12 kts | 255° |
| 2026-05-07 12:45 | 51.87668 | -0.36834 | 523 ft | 12 kts | 305° |
| 2026-05-07 12:45 | 51.87757 | -0.36897 | 516 ft | 16 kts | 341° |
| 2026-05-07 12:45 | 51.87886 | -0.36966 | 511 ft | 22 kts | 342° |
| 2026-05-07 12:46 | 51.87997 | -0.37037 | 511 ft | 13 kts | 314° |
| 2026-05-07 12:46 | 51.88060 | -0.37159 | 507 ft | 15 kts | 338° |
| 2026-05-07 12:46 | 51.88160 | -0.37209 | 513 ft | 15 kts | 343° |
| 2026-05-07 12:46 | 51.88226 | -0.37251 | 516 ft | 8 kts | 313° |
| 2026-05-07 12:47 | 51.88227 | -0.37338 | 515 ft | 8 kts | 251° |
| 2026-05-07 12:47 | 51.88208 | -0.37429 | 515 ft | 10 kts | 251° |
| 2026-05-07 12:47 | 51.88209 | -0.37552 | 515 ft | 13 kts | 276° |
| 2026-05-07 12:47 | 51.88179 | -0.37668 | 521 ft | 10 kts | 239° |
| 2026-05-07 12:48 | 51.88171 | -0.37689 | 522 ft | 1 kts | 239° |
| 2026-05-07 12:48 | 51.88167 | -0.37701 | 522 ft | 5 kts | 239° |
| 2026-05-07 12:48 | 51.88140 | -0.37766 | 522 ft | 8 kts | 233° |
| 2026-05-07 12:48 | 51.88106 | -0.37795 | 522 ft | 5 kts | 148° |
| 2026-05-07 12:49 | 51.88085 | -0.37754 | 522 ft | 3 kts | 128° |
| 2026-05-07 12:49 | 51.88083 | -0.37749 | 522 ft | 0 kts | 128° |